sensor_id;sensor_type;location;lat;lon;timestamp;P1;durP1;ratioP1;P2;durP2;ratioP2
22937;SDS011;11634;42.734;23.298;2024-01-27T00:01:53;9.77;;;3.87;;
22937;SDS011;11634;42.734;23.298;2024-01-27T00:04:18;12.90;;;4.30;;
22937;SDS011;11634;42.734;23.298;2024-01-27T00:06:44;7.43;;;4.27;;
22937;SDS011;11634;42.734;23.298;2024-01-27T00:09:10;10.23;;;3.97;;
22937;SDS011;11634;42.734;23.298;2024-01-27T00:11:35;10.90;;;3.93;;
22937;SDS011;11634;42.734;23.298;2024-01-27T00:14:01;7.87;;;4.20;;
22937;SDS011;11634;42.734;23.298;2024-01-27T00:16:28;7.97;;;3.70;;
22937;SDS011;11634;42.734;23.298;2024-01-27T00:18:54;7.83;;;3.93;;
22937;SDS011;11634;42.734;23.298;2024-01-27T00:21:19;6.03;;;3.43;;
22937;SDS011;11634;42.734;23.298;2024-01-27T00:23:45;9.03;;;4.27;;
22937;SDS011;11634;42.734;23.298;2024-01-27T00:26:11;10.07;;;4.57;;
22937;SDS011;11634;42.734;23.298;2024-01-27T00:28:36;7.37;;;3.80;;
22937;SDS011;11634;42.734;23.298;2024-01-27T00:31:02;8.93;;;4.33;;
22937;SDS011;11634;42.734;23.298;2024-01-27T00:33:28;8.07;;;3.37;;
22937;SDS011;11634;42.734;23.298;2024-01-27T00:35:53;7.13;;;3.80;;
22937;SDS011;11634;42.734;23.298;2024-01-27T00:38:19;10.03;;;3.43;;
22937;SDS011;11634;42.734;23.298;2024-01-27T00:40:45;8.10;;;5.17;;
22937;SDS011;11634;42.734;23.298;2024-01-27T00:43:11;7.90;;;3.83;;
22937;SDS011;11634;42.734;23.298;2024-01-27T00:45:39;8.30;;;3.90;;
22937;SDS011;11634;42.734;23.298;2024-01-27T00:48:05;7.47;;;3.50;;
22937;SDS011;11634;42.734;23.298;2024-01-27T00:50:32;8.33;;;3.83;;
22937;SDS011;11634;42.734;23.298;2024-01-27T00:53:01;10.27;;;3.93;;
22937;SDS011;11634;42.734;23.298;2024-01-27T00:55:29;8.37;;;3.53;;
22937;SDS011;11634;42.734;23.298;2024-01-27T00:57:54;9.37;;;3.83;;
22937;SDS011;11634;42.734;23.298;2024-01-27T01:00:20;8.30;;;4.00;;
22937;SDS011;11634;42.734;23.298;2024-01-27T01:02:46;8.43;;;4.03;;
22937;SDS011;11634;42.734;23.298;2024-01-27T01:05:14;7.20;;;4.57;;
22937;SDS011;11634;42.734;23.298;2024-01-27T01:07:40;7.03;;;3.83;;
22937;SDS011;11634;42.734;23.298;2024-01-27T01:10:06;9.97;;;5.40;;
22937;SDS011;11634;42.734;23.298;2024-01-27T01:12:32;10.83;;;5.27;;
22937;SDS011;11634;42.734;23.298;2024-01-27T01:14:57;7.30;;;3.53;;
22937;SDS011;11634;42.734;23.298;2024-01-27T01:17:23;11.83;;;4.10;;
22937;SDS011;11634;42.734;23.298;2024-01-27T01:19:49;10.40;;;4.00;;
22937;SDS011;11634;42.734;23.298;2024-01-27T01:22:15;7.40;;;3.40;;
22937;SDS011;11634;42.734;23.298;2024-01-27T01:24:41;9.07;;;3.63;;
22937;SDS011;11634;42.734;23.298;2024-01-27T01:27:06;12.67;;;3.80;;
22937;SDS011;11634;42.734;23.298;2024-01-27T01:29:32;8.80;;;3.60;;
22937;SDS011;11634;42.734;23.298;2024-01-27T01:31:58;9.13;;;3.70;;
22937;SDS011;11634;42.734;23.298;2024-01-27T01:34:23;10.82;;;4.07;;
22937;SDS011;11634;42.734;23.298;2024-01-27T01:36:49;9.13;;;3.60;;
22937;SDS011;11634;42.734;23.298;2024-01-27T01:39:15;7.23;;;3.27;;
22937;SDS011;11634;42.734;23.298;2024-01-27T01:41:41;6.43;;;3.57;;
22937;SDS011;11634;42.734;23.298;2024-01-27T01:44:09;8.37;;;3.80;;
22937;SDS011;11634;42.734;23.298;2024-01-27T01:46:35;8.15;;;2.95;;
22937;SDS011;11634;42.734;23.298;2024-01-27T01:49:01;10.25;;;3.15;;
22937;SDS011;11634;42.734;23.298;2024-01-27T01:51:27;6.77;;;3.10;;
22937;SDS011;11634;42.734;23.298;2024-01-27T01:53:54;8.23;;;3.20;;
22937;SDS011;11634;42.734;23.298;2024-01-27T01:56:23;6.27;;;3.30;;
22937;SDS011;11634;42.734;23.298;2024-01-27T01:58:50;3.23;;;1.97;;
22937;SDS011;11634;42.734;23.298;2024-01-27T02:01:16;4.00;;;2.03;;
22937;SDS011;11634;42.734;23.298;2024-01-27T02:03:58;11.47;;;3.70;;
22937;SDS011;11634;42.734;23.298;2024-01-27T02:06:26;8.20;;;3.42;;
22937;SDS011;11634;42.734;23.298;2024-01-27T02:08:51;5.15;;;3.30;;
22937;SDS011;11634;42.734;23.298;2024-01-27T02:11:17;6.95;;;3.22;;
22937;SDS011;11634;42.734;23.298;2024-01-27T02:13:43;7.30;;;3.53;;
22937;SDS011;11634;42.734;23.298;2024-01-27T02:16:09;8.50;;;3.38;;
22937;SDS011;11634;42.734;23.298;2024-01-27T02:18:35;6.97;;;3.88;;
22937;SDS011;11634;42.734;23.298;2024-01-27T02:21:00;8.75;;;4.00;;
22937;SDS011;11634;42.734;23.298;2024-01-27T02:23:26;11.63;;;4.30;;
22937;SDS011;11634;42.734;23.298;2024-01-27T02:25:52;9.90;;;4.53;;
22937;SDS011;11634;42.734;23.298;2024-01-27T02:28:17;8.95;;;3.40;;
22937;SDS011;11634;42.734;23.298;2024-01-27T02:30:43;10.33;;;3.60;;
22937;SDS011;11634;42.734;23.298;2024-01-27T02:33:09;10.17;;;3.67;;
22937;SDS011;11634;42.734;23.298;2024-01-27T02:35:35;9.87;;;4.23;;
22937;SDS011;11634;42.734;23.298;2024-01-27T02:38:01;11.00;;;3.90;;
22937;SDS011;11634;42.734;23.298;2024-01-27T02:40:27;9.70;;;3.65;;
22937;SDS011;11634;42.734;23.298;2024-01-27T02:42:52;8.60;;;3.93;;
22937;SDS011;11634;42.734;23.298;2024-01-27T02:45:24;7.03;;;3.42;;
22937;SDS011;11634;42.734;23.298;2024-01-27T02:47:50;7.47;;;3.22;;
22937;SDS011;11634;42.734;23.298;2024-01-27T02:50:16;7.30;;;3.27;;
22937;SDS011;11634;42.734;23.298;2024-01-27T02:52:42;9.87;;;2.97;;
22937;SDS011;11634;42.734;23.298;2024-01-27T02:55:08;9.27;;;3.50;;
22937;SDS011;11634;42.734;23.298;2024-01-27T02:57:37;10.10;;;3.03;;
22937;SDS011;11634;42.734;23.298;2024-01-27T03:00:03;5.55;;;2.85;;
22937;SDS011;11634;42.734;23.298;2024-01-27T03:02:30;5.85;;;2.63;;
22937;SDS011;11634;42.734;23.298;2024-01-27T03:04:55;9.27;;;3.67;;
22937;SDS011;11634;42.734;23.298;2024-01-27T03:07:21;7.20;;;2.90;;
22937;SDS011;11634;42.734;23.298;2024-01-27T03:09:47;7.20;;;3.35;;
22937;SDS011;11634;42.734;23.298;2024-01-27T03:12:13;6.13;;;3.38;;
22937;SDS011;11634;42.734;23.298;2024-01-27T03:14:40;6.73;;;2.83;;
22937;SDS011;11634;42.734;23.298;2024-01-27T03:17:06;11.57;;;2.87;;
22937;SDS011;11634;42.734;23.298;2024-01-27T03:19:32;5.88;;;2.88;;
22937;SDS011;11634;42.734;23.298;2024-01-27T03:21:58;6.35;;;3.10;;
22937;SDS011;11634;42.734;23.298;2024-01-27T03:24:24;6.15;;;2.70;;
22937;SDS011;11634;42.734;23.298;2024-01-27T03:26:49;6.30;;;2.30;;
22937;SDS011;11634;42.734;23.298;2024-01-27T03:29:15;7.45;;;2.22;;
22937;SDS011;11634;42.734;23.298;2024-01-27T03:31:41;6.85;;;2.88;;
22937;SDS011;11634;42.734;23.298;2024-01-27T03:34:07;4.85;;;1.80;;
22937;SDS011;11634;42.734;23.298;2024-01-27T03:36:32;7.05;;;2.13;;
22937;SDS011;11634;42.734;23.298;2024-01-27T03:39:01;5.03;;;2.58;;
22937;SDS011;11634;42.734;23.298;2024-01-27T03:41:29;7.40;;;2.63;;
22937;SDS011;11634;42.734;23.298;2024-01-27T03:43:55;6.55;;;2.33;;
22937;SDS011;11634;42.734;23.298;2024-01-27T03:46:21;6.72;;;2.80;;
22937;SDS011;11634;42.734;23.298;2024-01-27T03:48:46;4.75;;;2.75;;
22937;SDS011;11634;42.734;23.298;2024-01-27T03:51:12;5.85;;;1.95;;
22937;SDS011;11634;42.734;23.298;2024-01-27T03:53:38;5.05;;;2.70;;
22937;SDS011;11634;42.734;23.298;2024-01-27T03:56:04;6.60;;;2.25;;
22937;SDS011;11634;42.734;23.298;2024-01-27T03:58:30;8.10;;;3.73;;
22937;SDS011;11634;42.734;23.298;2024-01-27T04:00:59;4.67;;;2.83;;
22937;SDS011;11634;42.734;23.298;2024-01-27T04:03:25;6.32;;;2.90;;
22937;SDS011;11634;42.734;23.298;2024-01-27T04:05:50;4.60;;;2.83;;
22937;SDS011;11634;42.734;23.298;2024-01-27T04:08:16;7.47;;;3.03;;
22937;SDS011;11634;42.734;23.298;2024-01-27T04:10:42;11.15;;;3.17;;
22937;SDS011;11634;42.734;23.298;2024-01-27T04:13:07;6.53;;;3.00;;
22937;SDS011;11634;42.734;23.298;2024-01-27T04:15:33;9.68;;;3.95;;
22937;SDS011;11634;42.734;23.298;2024-01-27T04:18:05;7.72;;;3.72;;
22937;SDS011;11634;42.734;23.298;2024-01-27T04:20:37;7.17;;;3.53;;
22937;SDS011;11634;42.734;23.298;2024-01-27T04:23:03;9.17;;;3.57;;
22937;SDS011;11634;42.734;23.298;2024-01-27T04:25:31;4.83;;;2.50;;
22937;SDS011;11634;42.734;23.298;2024-01-27T04:27:57;7.38;;;3.70;;
22937;SDS011;11634;42.734;23.298;2024-01-27T04:30:22;10.35;;;4.00;;
22937;SDS011;11634;42.734;23.298;2024-01-27T04:32:48;6.93;;;3.80;;
22937;SDS011;11634;42.734;23.298;2024-01-27T04:35:17;7.90;;;3.73;;
22937;SDS011;11634;42.734;23.298;2024-01-27T04:37:43;6.25;;;3.67;;
22937;SDS011;11634;42.734;23.298;2024-01-27T04:40:10;6.13;;;3.57;;
22937;SDS011;11634;42.734;23.298;2024-01-27T04:42:39;7.32;;;3.65;;
22937;SDS011;11634;42.734;23.298;2024-01-27T04:45:05;8.37;;;3.40;;
22937;SDS011;11634;42.734;23.298;2024-01-27T04:47:31;4.47;;;2.70;;
22937;SDS011;11634;42.734;23.298;2024-01-27T04:49:57;7.50;;;2.85;;
22937;SDS011;11634;42.734;23.298;2024-01-27T04:52:23;6.83;;;2.90;;
22937;SDS011;11634;42.734;23.298;2024-01-27T04:54:49;6.63;;;3.07;;
22937;SDS011;11634;42.734;23.298;2024-01-27T04:57:15;7.03;;;3.10;;
22937;SDS011;11634;42.734;23.298;2024-01-27T04:59:41;9.03;;;2.90;;
22937;SDS011;11634;42.734;23.298;2024-01-27T05:02:07;7.50;;;3.45;;
22937;SDS011;11634;42.734;23.298;2024-01-27T05:04:33;6.40;;;3.00;;
22937;SDS011;11634;42.734;23.298;2024-01-27T05:06:59;8.57;;;3.70;;
22937;SDS011;11634;42.734;23.298;2024-01-27T05:09:24;5.88;;;3.17;;
22937;SDS011;11634;42.734;23.298;2024-01-27T05:11:50;12.80;;;3.47;;
22937;SDS011;11634;42.734;23.298;2024-01-27T05:14:19;6.77;;;3.30;;
22937;SDS011;11634;42.734;23.298;2024-01-27T05:16:45;9.88;;;5.65;;
22937;SDS011;11634;42.734;23.298;2024-01-27T05:19:11;11.00;;;3.65;;
22937;SDS011;11634;42.734;23.298;2024-01-27T05:21:37;8.27;;;4.97;;
22937;SDS011;11634;42.734;23.298;2024-01-27T05:24:03;9.45;;;3.60;;
22937;SDS011;11634;42.734;23.298;2024-01-27T05:26:29;7.47;;;3.77;;
22937;SDS011;11634;42.734;23.298;2024-01-27T05:28:55;9.93;;;3.30;;
22937;SDS011;11634;42.734;23.298;2024-01-27T05:31:21;8.15;;;3.72;;
22937;SDS011;11634;42.734;23.298;2024-01-27T05:33:47;11.67;;;4.90;;
22937;SDS011;11634;42.734;23.298;2024-01-27T05:36:13;8.37;;;3.63;;
22937;SDS011;11634;42.734;23.298;2024-01-27T05:38:41;11.13;;;4.10;;
22937;SDS011;11634;42.734;23.298;2024-01-27T05:41:07;5.83;;;3.87;;
22937;SDS011;11634;42.734;23.298;2024-01-27T05:43:33;7.17;;;3.73;;
22937;SDS011;11634;42.734;23.298;2024-01-27T05:45:58;13.47;;;4.73;;
22937;SDS011;11634;42.734;23.298;2024-01-27T05:48:24;8.83;;;4.23;;
22937;SDS011;11634;42.734;23.298;2024-01-27T05:51:00;12.97;;;4.43;;
22937;SDS011;11634;42.734;23.298;2024-01-27T05:53:26;8.60;;;5.07;;
22937;SDS011;11634;42.734;23.298;2024-01-27T05:55:55;9.10;;;4.57;;
22937;SDS011;11634;42.734;23.298;2024-01-27T05:58:22;6.23;;;4.10;;
22937;SDS011;11634;42.734;23.298;2024-01-27T06:00:48;9.57;;;4.40;;
22937;SDS011;11634;42.734;23.298;2024-01-27T06:03:14;9.57;;;4.20;;
22937;SDS011;11634;42.734;23.298;2024-01-27T06:05:42;10.60;;;3.83;;
22937;SDS011;11634;42.734;23.298;2024-01-27T06:08:09;7.10;;;4.10;;
22937;SDS011;11634;42.734;23.298;2024-01-27T06:10:34;10.70;;;4.53;;
22937;SDS011;11634;42.734;23.298;2024-01-27T06:13:03;8.37;;;3.93;;
22937;SDS011;11634;42.734;23.298;2024-01-27T06:15:29;8.10;;;4.10;;
22937;SDS011;11634;42.734;23.298;2024-01-27T06:17:55;9.37;;;4.90;;
22937;SDS011;11634;42.734;23.298;2024-01-27T06:20:20;6.93;;;4.73;;
22937;SDS011;11634;42.734;23.298;2024-01-27T06:22:46;10.37;;;5.90;;
22937;SDS011;11634;42.734;23.298;2024-01-27T06:25:18;14.60;;;5.73;;
22937;SDS011;11634;42.734;23.298;2024-01-27T06:27:44;10.53;;;4.90;;
22937;SDS011;11634;42.734;23.298;2024-01-27T06:30:10;12.27;;;5.47;;
22937;SDS011;11634;42.734;23.298;2024-01-27T06:32:36;12.00;;;4.63;;
22937;SDS011;11634;42.734;23.298;2024-01-27T06:35:03;13.83;;;6.10;;
22937;SDS011;11634;42.734;23.298;2024-01-27T06:37:37;21.60;;;8.37;;
22937;SDS011;11634;42.734;23.298;2024-01-27T06:40:03;18.03;;;8.20;;
22937;SDS011;11634;42.734;23.298;2024-01-27T06:42:29;10.37;;;6.50;;
22937;SDS011;11634;42.734;23.298;2024-01-27T06:44:55;13.67;;;6.53;;
22937;SDS011;11634;42.734;23.298;2024-01-27T06:47:21;12.60;;;4.53;;
22937;SDS011;11634;42.734;23.298;2024-01-27T06:49:47;9.53;;;5.67;;
22937;SDS011;11634;42.734;23.298;2024-01-27T06:52:13;7.17;;;4.73;;
22937;SDS011;11634;42.734;23.298;2024-01-27T06:54:38;10.77;;;5.80;;
22937;SDS011;11634;42.734;23.298;2024-01-27T06:57:30;11.00;;;5.00;;
22937;SDS011;11634;42.734;23.298;2024-01-27T06:59:54;9.87;;;4.40;;
22937;SDS011;11634;42.734;23.298;2024-01-27T07:02:24;9.80;;;4.80;;
22937;SDS011;11634;42.734;23.298;2024-01-27T07:04:51;8.03;;;4.77;;
22937;SDS011;11634;42.734;23.298;2024-01-27T07:07:18;8.63;;;4.47;;
22937;SDS011;11634;42.734;23.298;2024-01-27T07:09:49;10.85;;;4.88;;
22937;SDS011;11634;42.734;23.298;2024-01-27T07:12:14;9.03;;;4.00;;
22937;SDS011;11634;42.734;23.298;2024-01-27T07:14:40;4.97;;;3.78;;
22937;SDS011;11634;42.734;23.298;2024-01-27T07:17:06;7.18;;;4.15;;
22937;SDS011;11634;42.734;23.298;2024-01-27T07:19:32;4.97;;;4.10;;
22937;SDS011;11634;42.734;23.298;2024-01-27T07:21:58;7.95;;;3.60;;
22937;SDS011;11634;42.734;23.298;2024-01-27T07:24:25;5.22;;;2.42;;
22937;SDS011;11634;42.734;23.298;2024-01-27T07:26:51;8.00;;;3.70;;
22937;SDS011;11634;42.734;23.298;2024-01-27T07:29:35;4.70;;;2.50;;
22937;SDS011;11634;42.734;23.298;2024-01-27T07:32:01;5.15;;;3.38;;
22937;SDS011;11634;42.734;23.298;2024-01-27T07:34:26;3.08;;;1.85;;
22937;SDS011;11634;42.734;23.298;2024-01-27T07:36:55;3.30;;;2.85;;
22937;SDS011;11634;42.734;23.298;2024-01-27T07:39:21;3.17;;;2.45;;
22937;SDS011;11634;42.734;23.298;2024-01-27T07:41:46;2.78;;;1.90;;
22937;SDS011;11634;42.734;23.298;2024-01-27T07:44:14;3.97;;;1.45;;
22937;SDS011;11634;42.734;23.298;2024-01-27T07:46:40;1.90;;;1.70;;
22937;SDS011;11634;42.734;23.298;2024-01-27T07:49:07;2.78;;;2.20;;
22937;SDS011;11634;42.734;23.298;2024-01-27T07:51:34;3.53;;;2.20;;
22937;SDS011;11634;42.734;23.298;2024-01-27T07:54:00;3.10;;;2.42;;
22937;SDS011;11634;42.734;23.298;2024-01-27T07:56:26;2.50;;;2.10;;
22937;SDS011;11634;42.734;23.298;2024-01-27T07:58:52;4.57;;;2.38;;
22937;SDS011;11634;42.734;23.298;2024-01-27T08:01:19;4.38;;;2.42;;
22937;SDS011;11634;42.734;23.298;2024-01-27T08:03:45;6.82;;;3.60;;
22937;SDS011;11634;42.734;23.298;2024-01-27T08:06:15;6.63;;;4.60;;
22937;SDS011;11634;42.734;23.298;2024-01-27T08:08:51;5.72;;;3.15;;
22937;SDS011;11634;42.734;23.298;2024-01-27T08:11:19;7.10;;;3.25;;
22937;SDS011;11634;42.734;23.298;2024-01-27T08:13:45;6.80;;;3.80;;
22937;SDS011;11634;42.734;23.298;2024-01-27T08:16:11;5.25;;;3.63;;
22937;SDS011;11634;42.734;23.298;2024-01-27T08:18:40;5.25;;;3.58;;
22937;SDS011;11634;42.734;23.298;2024-01-27T08:21:07;6.78;;;4.15;;
22937;SDS011;11634;42.734;23.298;2024-01-27T08:23:33;4.82;;;3.55;;
22937;SDS011;11634;42.734;23.298;2024-01-27T08:25:59;5.65;;;3.95;;
22937;SDS011;11634;42.734;23.298;2024-01-27T08:28:25;7.85;;;4.40;;
22937;SDS011;11634;42.734;23.298;2024-01-27T08:30:51;4.75;;;3.95;;
22937;SDS011;11634;42.734;23.298;2024-01-27T08:33:17;4.82;;;3.50;;
22937;SDS011;11634;42.734;23.298;2024-01-27T08:35:43;3.40;;;2.92;;
22937;SDS011;11634;42.734;23.298;2024-01-27T08:38:09;8.02;;;4.65;;
22937;SDS011;11634;42.734;23.298;2024-01-27T08:40:35;5.13;;;3.30;;
22937;SDS011;11634;42.734;23.298;2024-01-27T08:43:01;4.35;;;3.00;;
22937;SDS011;11634;42.734;23.298;2024-01-27T08:45:27;3.20;;;2.50;;
22937;SDS011;11634;42.734;23.298;2024-01-27T08:47:53;4.28;;;2.75;;
22937;SDS011;11634;42.734;23.298;2024-01-27T08:50:19;9.05;;;2.92;;
22937;SDS011;11634;42.734;23.298;2024-01-27T08:52:45;2.75;;;2.30;;
22937;SDS011;11634;42.734;23.298;2024-01-27T08:55:11;5.15;;;2.80;;
22937;SDS011;11634;42.734;23.298;2024-01-27T08:57:37;2.85;;;2.30;;
22937;SDS011;11634;42.734;23.298;2024-01-27T09:00:06;3.50;;;2.45;;
22937;SDS011;11634;42.734;23.298;2024-01-27T09:02:32;3.45;;;1.90;;
22937;SDS011;11634;42.734;23.298;2024-01-27T09:04:58;3.28;;;1.95;;
22937;SDS011;11634;42.734;23.298;2024-01-27T09:07:24;1.75;;;1.60;;
22937;SDS011;11634;42.734;23.298;2024-01-27T09:09:49;2.67;;;2.03;;
22937;SDS011;11634;42.734;23.298;2024-01-27T09:12:15;3.88;;;2.35;;
22937;SDS011;11634;42.734;23.298;2024-01-27T09:14:41;2.78;;;2.20;;
22937;SDS011;11634;42.734;23.298;2024-01-27T09:17:06;4.25;;;1.83;;
22937;SDS011;11634;42.734;23.298;2024-01-27T09:19:32;2.20;;;1.88;;
22937;SDS011;11634;42.734;23.298;2024-01-27T09:21:58;3.42;;;2.08;;
22937;SDS011;11634;42.734;23.298;2024-01-27T09:24:24;1.95;;;1.83;;
22937;SDS011;11634;42.734;23.298;2024-01-27T09:26:50;3.97;;;2.17;;
22937;SDS011;11634;42.734;23.298;2024-01-27T09:29:19;3.45;;;2.75;;
22937;SDS011;11634;42.734;23.298;2024-01-27T09:31:46;2.78;;;2.42;;
22937;SDS011;11634;42.734;23.298;2024-01-27T09:34:12;2.78;;;2.40;;
22937;SDS011;11634;42.734;23.298;2024-01-27T09:36:38;2.80;;;2.60;;
22937;SDS011;11634;42.734;23.298;2024-01-27T09:39:06;6.20;;;2.78;;
22937;SDS011;11634;42.734;23.298;2024-01-27T09:41:32;2.35;;;1.85;;
22937;SDS011;11634;42.734;23.298;2024-01-27T09:44:02;3.25;;;1.92;;
22937;SDS011;11634;42.734;23.298;2024-01-27T09:46:29;2.10;;;1.67;;
22937;SDS011;11634;42.734;23.298;2024-01-27T09:48:56;2.42;;;2.10;;
22937;SDS011;11634;42.734;23.298;2024-01-27T09:51:21;2.67;;;2.20;;
22937;SDS011;11634;42.734;23.298;2024-01-27T09:53:48;2.55;;;1.73;;
22937;SDS011;11634;42.734;23.298;2024-01-27T09:56:16;2.60;;;2.30;;
22937;SDS011;11634;42.734;23.298;2024-01-27T09:58:46;1.58;;;1.40;;
22937;SDS011;11634;42.734;23.298;2024-01-27T10:01:17;1.98;;;1.55;;
22937;SDS011;11634;42.734;23.298;2024-01-27T10:03:46;2.88;;;1.60;;
22937;SDS011;11634;42.734;23.298;2024-01-27T10:06:12;2.75;;;2.17;;
22937;SDS011;11634;42.734;23.298;2024-01-27T10:08:40;2.42;;;1.90;;
22937;SDS011;11634;42.734;23.298;2024-01-27T10:11:06;2.05;;;1.80;;
22937;SDS011;11634;42.734;23.298;2024-01-27T10:13:34;1.75;;;1.40;;
22937;SDS011;11634;42.734;23.298;2024-01-27T10:16:03;1.90;;;1.75;;
22937;SDS011;11634;42.734;23.298;2024-01-27T10:18:30;2.17;;;1.52;;
22937;SDS011;11634;42.734;23.298;2024-01-27T10:20:57;2.63;;;2.08;;
22937;SDS011;11634;42.734;23.298;2024-01-27T10:23:26;1.55;;;1.40;;
22937;SDS011;11634;42.734;23.298;2024-01-27T10:25:52;2.53;;;2.33;;
22937;SDS011;11634;42.734;23.298;2024-01-27T10:28:18;4.60;;;2.13;;
22937;SDS011;11634;42.734;23.298;2024-01-27T10:30:44;4.15;;;2.00;;
22937;SDS011;11634;42.734;23.298;2024-01-27T10:33:11;2.53;;;1.63;;
22937;SDS011;11634;42.734;23.298;2024-01-27T10:35:40;2.30;;;1.75;;
22937;SDS011;11634;42.734;23.298;2024-01-27T10:38:07;2.50;;;2.00;;
22937;SDS011;11634;42.734;23.298;2024-01-27T10:40:36;2.55;;;1.88;;
22937;SDS011;11634;42.734;23.298;2024-01-27T10:43:17;2.40;;;1.88;;
22937;SDS011;11634;42.734;23.298;2024-01-27T10:45:44;1.90;;;1.70;;
22937;SDS011;11634;42.734;23.298;2024-01-27T10:48:10;2.33;;;1.60;;
22937;SDS011;11634;42.734;23.298;2024-01-27T10:50:38;2.95;;;1.70;;
22937;SDS011;11634;42.734;23.298;2024-01-27T10:53:05;2.45;;;1.83;;
22937;SDS011;11634;42.734;23.298;2024-01-27T10:55:35;2.90;;;1.73;;
22937;SDS011;11634;42.734;23.298;2024-01-27T10:58:03;2.40;;;2.20;;
22937;SDS011;11634;42.734;23.298;2024-01-27T11:00:29;2.03;;;1.83;;
22937;SDS011;11634;42.734;23.298;2024-01-27T11:03:07;2.17;;;1.80;;
22937;SDS011;11634;42.734;23.298;2024-01-27T11:05:40;2.47;;;2.10;;
22937;SDS011;11634;42.734;23.298;2024-01-27T11:08:07;1.48;;;1.30;;
22937;SDS011;11634;42.734;23.298;2024-01-27T11:10:34;3.05;;;2.10;;
22937;SDS011;11634;42.734;23.298;2024-01-27T11:13:03;2.85;;;2.33;;
22937;SDS011;11634;42.734;23.298;2024-01-27T11:15:33;2.33;;;2.13;;
22937;SDS011;11634;42.734;23.298;2024-01-27T11:17:59;2.60;;;2.33;;
22937;SDS011;11634;42.734;23.298;2024-01-27T11:20:32;3.67;;;2.35;;
22937;SDS011;11634;42.734;23.298;2024-01-27T11:23:16;2.40;;;2.15;;
22937;SDS011;11634;42.734;23.298;2024-01-27T11:25:41;3.25;;;2.05;;
22937;SDS011;11634;42.734;23.298;2024-01-27T11:28:11;2.40;;;2.20;;
22937;SDS011;11634;42.734;23.298;2024-01-27T11:30:39;3.25;;;2.45;;
22937;SDS011;11634;42.734;23.298;2024-01-27T11:33:05;2.78;;;2.50;;
22937;SDS011;11634;42.734;23.298;2024-01-27T11:35:31;2.58;;;2.38;;
22937;SDS011;11634;42.734;23.298;2024-01-27T11:37:57;4.38;;;2.88;;
22937;SDS011;11634;42.734;23.298;2024-01-27T11:40:23;3.50;;;3.20;;
22937;SDS011;11634;42.734;23.298;2024-01-27T11:42:58;2.72;;;2.17;;
22937;SDS011;11634;42.734;23.298;2024-01-27T11:45:25;3.20;;;2.90;;
22937;SDS011;11634;42.734;23.298;2024-01-27T11:47:52;3.33;;;2.47;;
22937;SDS011;11634;42.734;23.298;2024-01-27T11:50:21;3.42;;;2.38;;
22937;SDS011;11634;42.734;23.298;2024-01-27T11:52:48;2.70;;;2.50;;
22937;SDS011;11634;42.734;23.298;2024-01-27T11:55:14;3.47;;;2.33;;
22937;SDS011;11634;42.734;23.298;2024-01-27T11:57:41;2.60;;;2.40;;
22937;SDS011;11634;42.734;23.298;2024-01-27T12:00:07;4.75;;;2.95;;
22937;SDS011;11634;42.734;23.298;2024-01-27T12:02:37;3.15;;;2.80;;
22937;SDS011;11634;42.734;23.298;2024-01-27T12:05:04;2.75;;;2.33;;
22937;SDS011;11634;42.734;23.298;2024-01-27T12:07:31;2.38;;;2.17;;
22937;SDS011;11634;42.734;23.298;2024-01-27T12:09:56;2.83;;;2.20;;
22937;SDS011;11634;42.734;23.298;2024-01-27T12:12:22;2.10;;;1.90;;
22937;SDS011;11634;42.734;23.298;2024-01-27T12:14:49;3.13;;;2.45;;
22937;SDS011;11634;42.734;23.298;2024-01-27T12:17:16;4.03;;;2.05;;
22937;SDS011;11634;42.734;23.298;2024-01-27T12:19:50;2.35;;;2.15;;
22937;SDS011;11634;42.734;23.298;2024-01-27T12:22:23;2.65;;;2.30;;
22937;SDS011;11634;42.734;23.298;2024-01-27T12:24:54;2.15;;;1.63;;
22937;SDS011;11634;42.734;23.298;2024-01-27T12:27:23;2.53;;;1.95;;
22937;SDS011;11634;42.734;23.298;2024-01-27T12:29:55;2.40;;;2.20;;
22937;SDS011;11634;42.734;23.298;2024-01-27T12:32:21;2.58;;;2.38;;
22937;SDS011;11634;42.734;23.298;2024-01-27T12:34:48;4.15;;;2.20;;
22937;SDS011;11634;42.734;23.298;2024-01-27T12:37:33;2.30;;;1.75;;
22937;SDS011;11634;42.734;23.298;2024-01-27T12:39:59;3.20;;;1.80;;
22937;SDS011;11634;42.734;23.298;2024-01-27T12:42:25;2.67;;;2.20;;
22937;SDS011;11634;42.734;23.298;2024-01-27T12:44:51;1.88;;;1.70;;
22937;SDS011;11634;42.734;23.298;2024-01-27T12:47:16;2.78;;;2.17;;
22937;SDS011;11634;42.734;23.298;2024-01-27T12:49:45;4.05;;;1.67;;
22937;SDS011;11634;42.734;23.298;2024-01-27T12:52:11;3.47;;;2.15;;
22937;SDS011;11634;42.734;23.298;2024-01-27T12:54:37;2.22;;;2.03;;
22937;SDS011;11634;42.734;23.298;2024-01-27T12:57:02;4.68;;;2.17;;
22937;SDS011;11634;42.734;23.298;2024-01-27T12:59:32;2.65;;;2.45;;
22937;SDS011;11634;42.734;23.298;2024-01-27T13:01:58;3.30;;;2.63;;
22937;SDS011;11634;42.734;23.298;2024-01-27T13:04:23;4.32;;;2.25;;
22937;SDS011;11634;42.734;23.298;2024-01-27T13:06:49;2.58;;;1.67;;
22937;SDS011;11634;42.734;23.298;2024-01-27T13:09:16;3.35;;;2.30;;
22937;SDS011;11634;42.734;23.298;2024-01-27T13:11:42;1.95;;;1.75;;
22937;SDS011;11634;42.734;23.298;2024-01-27T13:14:08;2.70;;;1.90;;
22937;SDS011;11634;42.734;23.298;2024-01-27T13:16:34;2.20;;;1.58;;
22937;SDS011;11634;42.734;23.298;2024-01-27T13:19:09;4.57;;;2.05;;
22937;SDS011;11634;42.734;23.298;2024-01-27T13:21:35;2.63;;;2.28;;
22937;SDS011;11634;42.734;23.298;2024-01-27T13:24:00;3.33;;;2.03;;
22937;SDS011;11634;42.734;23.298;2024-01-27T13:26:27;3.80;;;1.98;;
22937;SDS011;11634;42.734;23.298;2024-01-27T13:28:53;7.97;;;2.50;;
22937;SDS011;11634;42.734;23.298;2024-01-27T13:31:25;3.10;;;2.10;;
22937;SDS011;11634;42.734;23.298;2024-01-27T13:33:51;2.92;;;1.50;;
22937;SDS011;11634;42.734;23.298;2024-01-27T13:36:16;3.97;;;1.80;;
22937;SDS011;11634;42.734;23.298;2024-01-27T13:38:54;2.05;;;1.85;;
22937;SDS011;11634;42.734;23.298;2024-01-27T13:41:20;3.65;;;1.98;;
22937;SDS011;11634;42.734;23.298;2024-01-27T13:43:46;2.42;;;1.35;;
22937;SDS011;11634;42.734;23.298;2024-01-27T13:46:11;2.45;;;1.63;;
22937;SDS011;11634;42.734;23.298;2024-01-27T13:48:37;5.82;;;1.48;;
22937;SDS011;11634;42.734;23.298;2024-01-27T13:51:08;3.95;;;1.60;;
22937;SDS011;11634;42.734;23.298;2024-01-27T13:53:33;4.70;;;2.35;;
22937;SDS011;11634;42.734;23.298;2024-01-27T13:55:59;6.55;;;2.60;;
22937;SDS011;11634;42.734;23.298;2024-01-27T13:58:25;2.03;;;1.80;;
22937;SDS011;11634;42.734;23.298;2024-01-27T14:00:51;2.15;;;1.45;;
22937;SDS011;11634;42.734;23.298;2024-01-27T14:03:17;4.30;;;2.20;;
22937;SDS011;11634;42.734;23.298;2024-01-27T14:05:43;2.20;;;1.60;;
22937;SDS011;11634;42.734;23.298;2024-01-27T14:08:11;2.90;;;1.60;;
22937;SDS011;11634;42.734;23.298;2024-01-27T14:10:37;3.80;;;1.77;;
22937;SDS011;11634;42.734;23.298;2024-01-27T14:13:05;2.83;;;1.52;;
22937;SDS011;11634;42.734;23.298;2024-01-27T14:15:34;5.13;;;2.30;;
22937;SDS011;11634;42.734;23.298;2024-01-27T14:18:03;6.63;;;2.70;;
22937;SDS011;11634;42.734;23.298;2024-01-27T14:20:31;4.18;;;2.28;;
22937;SDS011;11634;42.734;23.298;2024-01-27T14:23:00;5.22;;;2.10;;
22937;SDS011;11634;42.734;23.298;2024-01-27T14:25:29;6.68;;;1.98;;
22937;SDS011;11634;42.734;23.298;2024-01-27T14:27:56;5.93;;;2.92;;
22937;SDS011;11634;42.734;23.298;2024-01-27T14:30:42;3.58;;;1.85;;
22937;SDS011;11634;42.734;23.298;2024-01-27T14:33:10;5.07;;;2.03;;